sensor_id;sensor_type;location;lat;lon;timestamp;temperature;humidity
60242;SHT30;46103;52.076;113.488;2022-10-16T00:00:09;-0.38;44.71
60242;SHT30;46103;52.076;113.488;2022-10-16T00:03:19;-0.32;44.45
60242;SHT30;46103;52.076;113.488;2022-10-16T00:06:35;-0.25;44.42
60242;SHT30;46103;52.076;113.488;2022-10-16T00:09:43;-0.21;44.45
60242;SHT30;46103;52.076;113.488;2022-10-16T00:12:53;-0.17;44.29
60242;SHT30;46103;52.076;113.488;2022-10-16T00:16:03;-0.11;44.37
60242;SHT30;46103;52.076;113.488;2022-10-16T00:19:13;0.00;44.08
60242;SHT30;46103;52.076;113.488;2022-10-16T00:22:22;0.10;43.62
60242;SHT30;46103;52.076;113.488;2022-10-16T00:25:32;0.16;43.58
60242;SHT30;46103;52.076;113.488;2022-10-16T00:28:40;0.36;43.33
60242;SHT30;46103;52.076;113.488;2022-10-16T00:31:50;0.46;42.70
60242;SHT30;46103;52.076;113.488;2022-10-16T00:34:59;0.46;42.42
60242;SHT30;46103;52.076;113.488;2022-10-16T00:38:09;0.53;42.26
60242;SHT30;46103;52.076;113.488;2022-10-16T00:41:17;0.55;42.15
60242;SHT30;46103;52.076;113.488;2022-10-16T00:44:51;0.69;42.00
60242;SHT30;46103;52.076;113.488;2022-10-16T00:48:03;0.76;41.74
60242;SHT30;46103;52.076;113.488;2022-10-16T00:51:11;0.74;41.52
60242;SHT30;46103;52.076;113.488;2022-10-16T00:54:28;0.88;41.50
60242;SHT30;46103;52.076;113.488;2022-10-16T00:57:32;0.92;41.11
60242;SHT30;46103;52.076;113.488;2022-10-16T01:00:36;1.10;40.68
60242;SHT30;46103;52.076;113.488;2022-10-16T01:03:40;1.07;40.48
60242;SHT30;46103;52.076;113.488;2022-10-16T01:13:40;1.47;40.08
60242;SHT30;46103;52.076;113.488;2022-10-16T01:16:52;1.55;39.81
60242;SHT30;46103;52.076;113.488;2022-10-16T01:30:18;1.77;39.02
60242;SHT30;46103;52.076;113.488;2022-10-16T01:33:40;1.74;38.94
60242;SHT30;46103;52.076;113.488;2022-10-16T01:36:57;1.67;39.08
60242;SHT30;46103;52.076;113.488;2022-10-16T01:40:09;1.71;39.17
60242;SHT30;46103;52.076;113.488;2022-10-16T01:43:15;1.88;38.71
60242;SHT30;46103;52.076;113.488;2022-10-16T01:46:21;1.94;38.41
60242;SHT30;46103;52.076;113.488;2022-10-16T01:49:31;1.94;38.67
60242;SHT30;46103;52.076;113.488;2022-10-16T01:52:39;1.92;38.66
60242;SHT30;46103;52.076;113.488;2022-10-16T01:55:46;2.01;38.25
60242;SHT30;46103;52.076;113.488;2022-10-16T01:59:11;2.06;38.42
60242;SHT30;46103;52.076;113.488;2022-10-16T02:02:17;2.33;37.93
60242;SHT30;46103;52.076;113.488;2022-10-16T02:05:30;2.46;37.46
60242;SHT30;46103;52.076;113.488;2022-10-16T02:08:36;2.54;37.12
60242;SHT30;46103;52.076;113.488;2022-10-16T02:11:39;2.65;36.79
60242;SHT30;46103;52.076;113.488;2022-10-16T02:14:42;2.75;36.50
60242;SHT30;46103;52.076;113.488;2022-10-16T02:17:47;2.98;36.34
60242;SHT30;46103;52.076;113.488;2022-10-16T02:21:17;3.19;35.74
60242;SHT30;46103;52.076;113.488;2022-10-16T02:24:57;3.43;35.46
60242;SHT30;46103;52.076;113.488;2022-10-16T02:31:21;3.56;34.17
60242;SHT30;46103;52.076;113.488;2022-10-16T02:34:27;3.66;34.22
60242;SHT30;46103;52.076;113.488;2022-10-16T02:37:32;3.68;33.61
60242;SHT30;46103;52.076;113.488;2022-10-16T02:40:37;3.64;33.43
60242;SHT30;46103;52.076;113.488;2022-10-16T02:43:41;3.70;33.76
60242;SHT30;46103;52.076;113.488;2022-10-16T02:46:44;3.63;33.32
60242;SHT30;46103;52.076;113.488;2022-10-16T02:49:47;3.73;33.34
60242;SHT30;46103;52.076;113.488;2022-10-16T02:52:51;3.74;32.66
60242;SHT30;46103;52.076;113.488;2022-10-16T02:55:55;3.95;32.23
60242;SHT30;46103;52.076;113.488;2022-10-16T02:58:59;3.94;31.89
60242;SHT30;46103;52.076;113.488;2022-10-16T03:02:02;4.06;32.16
60242;SHT30;46103;52.076;113.488;2022-10-16T03:05:07;4.19;32.07
60242;SHT30;46103;52.076;113.488;2022-10-16T03:08:11;4.23;31.86
60242;SHT30;46103;52.076;113.488;2022-10-16T03:11:14;4.28;31.36
60242;SHT30;46103;52.076;113.488;2022-10-16T03:14:17;4.40;31.28
60242;SHT30;46103;52.076;113.488;2022-10-16T03:17:21;4.40;30.81
60242;SHT30;46103;52.076;113.488;2022-10-16T03:20:26;4.50;30.68
60242;SHT30;46103;52.076;113.488;2022-10-16T03:23:30;4.49;30.40
60242;SHT30;46103;52.076;113.488;2022-10-16T03:26:34;4.64;30.53
60242;SHT30;46103;52.076;113.488;2022-10-16T03:29:38;4.78;29.91
60242;SHT30;46103;52.076;113.488;2022-10-16T03:32:44;4.71;30.14
60242;SHT30;46103;52.076;113.488;2022-10-16T03:35:53;4.64;30.69
60242;SHT30;46103;52.076;113.488;2022-10-16T03:38:56;4.82;30.66
60242;SHT30;46103;52.076;113.488;2022-10-16T03:42:01;4.88;30.91
60242;SHT30;46103;52.076;113.488;2022-10-16T03:45:08;4.88;29.95
60242;SHT30;46103;52.076;113.488;2022-10-16T03:48:13;4.80;30.13
60242;SHT30;46103;52.076;113.488;2022-10-16T03:51:17;4.58;30.89
60242;SHT30;46103;52.076;113.488;2022-10-16T03:54:20;4.56;30.73
60242;SHT30;46103;52.076;113.488;2022-10-16T03:57:25;4.52;30.67
60242;SHT30;46103;52.076;113.488;2022-10-16T04:00:29;4.53;30.89
60242;SHT30;46103;52.076;113.488;2022-10-16T04:03:33;4.54;30.90
60242;SHT30;46103;52.076;113.488;2022-10-16T04:06:37;4.74;30.70
60242;SHT30;46103;52.076;113.488;2022-10-16T04:09:42;4.95;29.63
60242;SHT30;46103;52.076;113.488;2022-10-16T04:12:46;4.95;29.69
60242;SHT30;46103;52.076;113.488;2022-10-16T04:15:51;4.80;29.84
60242;SHT30;46103;52.076;113.488;2022-10-16T04:18:54;4.61;30.34
60242;SHT30;46103;52.076;113.488;2022-10-16T04:21:59;4.65;30.62
60242;SHT30;46103;52.076;113.488;2022-10-16T04:25:03;4.72;30.75
60242;SHT30;46103;52.076;113.488;2022-10-16T04:28:07;4.95;30.13
60242;SHT30;46103;52.076;113.488;2022-10-16T04:31:11;5.29;29.60
60242;SHT30;46103;52.076;113.488;2022-10-16T04:34:16;5.87;28.61
60242;SHT30;46103;52.076;113.488;2022-10-16T04:37:24;7.47;26.80
60242;SHT30;46103;52.076;113.488;2022-10-16T04:40:28;7.15;26.08
60242;SHT30;46103;52.076;113.488;2022-10-16T04:43:32;7.14;25.88
60242;SHT30;46103;52.076;113.488;2022-10-16T04:46:37;6.73;26.19
60242;SHT30;46103;52.076;113.488;2022-10-16T04:49:41;6.04;27.41
60242;SHT30;46103;52.076;113.488;2022-10-16T04:52:45;5.85;27.48
60242;SHT30;46103;52.076;113.488;2022-10-16T04:55:49;5.88;27.66
60242;SHT30;46103;52.076;113.488;2022-10-16T04:58:54;5.74;27.88
60242;SHT30;46103;52.076;113.488;2022-10-16T05:01:57;5.58;28.12
60242;SHT30;46103;52.076;113.488;2022-10-16T05:05:02;5.49;28.37
60242;SHT30;46103;52.076;113.488;2022-10-16T05:08:06;5.44;28.75
60242;SHT30;46103;52.076;113.488;2022-10-16T05:11:10;5.50;28.48
60242;SHT30;46103;52.076;113.488;2022-10-16T05:14:14;5.50;28.25
60242;SHT30;46103;52.076;113.488;2022-10-16T05:17:18;5.56;27.91
60242;SHT30;46103;52.076;113.488;2022-10-16T05:20:23;5.68;27.89
60242;SHT30;46103;52.076;113.488;2022-10-16T05:23:26;5.77;27.60
60242;SHT30;46103;52.076;113.488;2022-10-16T05:26:30;5.85;27.93
60242;SHT30;46103;52.076;113.488;2022-10-16T05:29:34;5.91;27.67
60242;SHT30;46103;52.076;113.488;2022-10-16T05:32:38;6.04;27.42
60242;SHT30;46103;52.076;113.488;2022-10-16T05:35:42;5.93;27.73
60242;SHT30;46103;52.076;113.488;2022-10-16T05:38:50;5.83;28.09
60242;SHT30;46103;52.076;113.488;2022-10-16T05:41:54;5.66;28.27
60242;SHT30;46103;52.076;113.488;2022-10-16T05:44:58;5.75;28.18
60242;SHT30;46103;52.076;113.488;2022-10-16T05:48:02;6.15;27.95
60242;SHT30;46103;52.076;113.488;2022-10-16T05:51:09;6.37;27.40
60242;SHT30;46103;52.076;113.488;2022-10-16T05:54:13;6.34;27.53
60242;SHT30;46103;52.076;113.488;2022-10-16T05:57:18;6.30;27.67
60242;SHT30;46103;52.076;113.488;2022-10-16T06:00:22;6.36;27.70
60242;SHT30;46103;52.076;113.488;2022-10-16T06:03:27;6.56;27.47
60242;SHT30;46103;52.076;113.488;2022-10-16T06:06:31;6.85;27.04
60242;SHT30;46103;52.076;113.488;2022-10-16T06:09:34;7.04;26.59
60242;SHT30;46103;52.076;113.488;2022-10-16T06:12:38;7.18;26.50
60242;SHT30;46103;52.076;113.488;2022-10-16T06:15:42;6.87;26.87
60242;SHT30;46103;52.076;113.488;2022-10-16T06:18:46;6.77;26.69
60242;SHT30;46103;52.076;113.488;2022-10-16T06:21:51;6.95;26.84
60242;SHT30;46103;52.076;113.488;2022-10-16T06:24:55;7.16;25.92
60242;SHT30;46103;52.076;113.488;2022-10-16T06:27:59;7.40;25.67
60242;SHT30;46103;52.076;113.488;2022-10-16T06:31:05;7.88;25.34
60242;SHT30;46103;52.076;113.488;2022-10-16T06:34:10;7.73;24.58
60242;SHT30;46103;52.076;113.488;2022-10-16T06:37:15;7.80;24.38
60242;SHT30;46103;52.076;113.488;2022-10-16T06:40:18;7.55;24.56
60242;SHT30;46103;52.076;113.488;2022-10-16T06:43:23;7.71;24.24
60242;SHT30;46103;52.076;113.488;2022-10-16T06:46:26;8.06;24.28
60242;SHT30;46103;52.076;113.488;2022-10-16T06:49:31;8.25;23.61
60242;SHT30;46103;52.076;113.488;2022-10-16T06:52:36;8.02;23.82
60242;SHT30;46103;52.076;113.488;2022-10-16T06:55:39;7.81;23.85
60242;SHT30;46103;52.076;113.488;2022-10-16T06:58:44;7.70;24.22
60242;SHT30;46103;52.076;113.488;2022-10-16T07:01:47;7.84;23.86
60242;SHT30;46103;52.076;113.488;2022-10-16T07:04:51;8.21;23.44
60242;SHT30;46103;52.076;113.488;2022-10-16T07:07:54;8.57;23.24
60242;SHT30;46103;52.076;113.488;2022-10-16T07:11:03;8.59;22.74
60242;SHT30;46103;52.076;113.488;2022-10-16T07:14:19;8.53;22.38
60242;SHT30;46103;52.076;113.488;2022-10-16T07:17:23;8.69;22.40
60242;SHT30;46103;52.076;113.488;2022-10-16T07:20:26;8.73;22.10
60242;SHT30;46103;52.076;113.488;2022-10-16T07:23:29;8.74;21.88
60242;SHT30;46103;52.076;113.488;2022-10-16T07:26:34;8.66;21.72
60242;SHT30;46103;52.076;113.488;2022-10-16T07:29:39;8.48;21.87
60242;SHT30;46103;52.076;113.488;2022-10-16T07:32:43;8.45;21.84
60242;SHT30;46103;52.076;113.488;2022-10-16T07:35:52;8.50;21.61
60242;SHT30;46103;52.076;113.488;2022-10-16T07:38:55;8.48;21.66
60242;SHT30;46103;52.076;113.488;2022-10-16T07:42:01;8.84;21.68
60242;SHT30;46103;52.076;113.488;2022-10-16T07:45:05;9.26;21.01
60242;SHT30;46103;52.076;113.488;2022-10-16T07:48:10;9.40;21.25
60242;SHT30;46103;52.076;113.488;2022-10-16T07:51:22;8.49;22.32
60242;SHT30;46103;52.076;113.488;2022-10-16T07:54:25;8.40;22.73
60242;SHT30;46103;52.076;113.488;2022-10-16T07:57:30;8.67;22.21
60242;SHT30;46103;52.076;113.488;2022-10-16T08:00:36;9.16;22.08
60242;SHT30;46103;52.076;113.488;2022-10-16T08:03:47;9.77;21.56
60242;SHT30;46103;52.076;113.488;2022-10-16T08:06:51;9.83;21.37
60242;SHT30;46103;52.076;113.488;2022-10-16T08:09:55;9.77;21.25
60242;SHT30;46103;52.076;113.488;2022-10-16T08:13:02;9.69;21.53
60242;SHT30;46103;52.076;113.488;2022-10-16T08:16:10;9.63;21.96
60242;SHT30;46103;52.076;113.488;2022-10-16T08:19:14;9.59;22.01
60242;SHT30;46103;52.076;113.488;2022-10-16T08:22:19;9.52;22.10
60242;SHT30;46103;52.076;113.488;2022-10-16T08:25:26;9.46;22.21
60242;SHT30;46103;52.076;113.488;2022-10-16T08:28:30;9.50;22.34
60242;SHT30;46103;52.076;113.488;2022-10-16T08:31:34;9.66;22.45
60242;SHT30;46103;52.076;113.488;2022-10-16T08:34:40;9.70;22.26
60242;SHT30;46103;52.076;113.488;2022-10-16T08:37:43;10.00;22.25
60242;SHT30;46103;52.076;113.488;2022-10-16T08:40:46;10.25;21.94
60242;SHT30;46103;52.076;113.488;2022-10-16T08:44:28;10.22;22.28
60242;SHT30;46103;52.076;113.488;2022-10-16T08:51:01;9.86;22.80
60242;SHT30;46103;52.076;113.488;2022-10-16T08:54:24;9.26;23.51
60242;SHT30;46103;52.076;113.488;2022-10-16T08:57:31;8.24;24.93
60242;SHT30;46103;52.076;113.488;2022-10-16T09:00:36;7.39;25.96
60242;SHT30;46103;52.076;113.488;2022-10-16T09:24:25;5.04;29.69
60242;SHT30;46103;52.076;113.488;2022-10-16T09:27:30;4.88;30.09
60242;SHT30;46103;52.076;113.488;2022-10-16T09:30:33;4.77;30.17
60242;SHT30;46103;52.076;113.488;2022-10-16T09:33:39;4.63;30.57
60242;SHT30;46103;52.076;113.488;2022-10-16T09:36:45;4.58;30.61
60242;SHT30;46103;52.076;113.488;2022-10-16T09:39:51;4.56;30.40
60242;SHT30;46103;52.076;113.488;2022-10-16T09:46:29;4.54;30.78
60242;SHT30;46103;52.076;113.488;2022-10-16T09:49:33;4.50;30.44
60242;SHT30;46103;52.076;113.488;2022-10-16T09:52:37;4.52;30.56
60242;SHT30;46103;52.076;113.488;2022-10-16T09:55:51;4.57;30.66
60242;SHT30;46103;52.076;113.488;2022-10-16T09:58:58;4.49;30.98
60242;SHT30;46103;52.076;113.488;2022-10-16T10:02:04;4.44;30.83
60242;SHT30;46103;52.076;113.488;2022-10-16T10:05:25;4.52;31.06
60242;SHT30;46103;52.076;113.488;2022-10-16T10:08:29;4.53;31.17
60242;SHT30;46103;52.076;113.488;2022-10-16T10:11:40;4.52;31.35
60242;SHT30;46103;52.076;113.488;2022-10-16T10:14:49;4.49;31.35
60242;SHT30;46103;52.076;113.488;2022-10-16T10:17:54;4.50;31.32
60242;SHT30;46103;52.076;113.488;2022-10-16T10:21:02;4.49;31.55
60242;SHT30;46103;52.076;113.488;2022-10-16T10:24:15;4.52;31.62
60242;SHT30;46103;52.076;113.488;2022-10-16T10:27:19;4.56;31.55
60242;SHT30;46103;52.076;113.488;2022-10-16T10:33:52;4.60;31.54
60242;SHT30;46103;52.076;113.488;2022-10-16T10:37:10;4.56;31.75
60242;SHT30;46103;52.076;113.488;2022-10-16T10:44:19;4.67;31.86
60242;SHT30;46103;52.076;113.488;2022-10-16T10:51:13;4.57;32.48
60242;SHT30;46103;52.076;113.488;2022-10-16T10:54:54;4.47;33.01
60242;SHT30;46103;52.076;113.488;2022-10-16T11:01:12;4.20;34.03
60242;SHT30;46103;52.076;113.488;2022-10-16T11:04:32;4.15;34.69
60242;SHT30;46103;52.076;113.488;2022-10-16T11:10:58;4.01;35.89
60242;SHT30;46103;52.076;113.488;2022-10-16T11:14:05;3.98;36.09
60242;SHT30;46103;52.076;113.488;2022-10-16T11:17:13;4.06;35.66
60242;SHT30;46103;52.076;113.488;2022-10-16T11:20:22;4.09;35.63
60242;SHT30;46103;52.076;113.488;2022-10-16T11:23:32;4.08;35.60
60242;SHT30;46103;52.076;113.488;2022-10-16T11:26:41;4.05;35.73
60242;SHT30;46103;52.076;113.488;2022-10-16T11:29:58;4.08;35.95
60242;SHT30;46103;52.076;113.488;2022-10-16T11:36:20;3.87;36.79
60242;SHT30;46103;52.076;113.488;2022-10-16T11:39:29;3.78;37.13
60242;SHT30;46103;52.076;113.488;2022-10-16T11:42:42;3.66;37.58
60242;SHT30;46103;52.076;113.488;2022-10-16T11:45:58;3.56;37.97
60242;SHT30;46103;52.076;113.488;2022-10-16T11:49:16;3.36;38.84
60242;SHT30;46103;52.076;113.488;2022-10-16T11:52:40;3.22;39.67
60242;SHT30;46103;52.076;113.488;2022-10-16T11:55:46;3.03;40.35
60242;SHT30;46103;52.076;113.488;2022-10-16T12:02:41;2.85;40.89
60242;SHT30;46103;52.076;113.488;2022-10-16T12:06:20;2.75;41.21
60242;SHT30;46103;52.076;113.488;2022-10-16T12:09:30;2.58;41.73
60242;SHT30;46103;52.076;113.488;2022-10-16T12:12:39;2.41;42.19
60242;SHT30;46103;52.076;113.488;2022-10-16T12:15:44;2.33;42.57
60242;SHT30;46103;52.076;113.488;2022-10-16T12:19:16;2.27;42.93
60242;SHT30;46103;52.076;113.488;2022-10-16T12:22:21;2.13;43.28
60242;SHT30;46103;52.076;113.488;2022-10-16T12:25:34;2.06;43.38
60242;SHT30;46103;52.076;113.488;2022-10-16T12:28:39;1.99;43.67
60242;SHT30;46103;52.076;113.488;2022-10-16T12:31:46;1.91;43.81
60242;SHT30;46103;52.076;113.488;2022-10-16T12:35:01;1.85;43.99
60242;SHT30;46103;52.076;113.488;2022-10-16T12:38:21;1.75;44.15
60242;SHT30;46103;52.076;113.488;2022-10-16T12:41:29;1.70;44.32
60242;SHT30;46103;52.076;113.488;2022-10-16T12:44:35;1.64;44.62
60242;SHT30;46103;52.076;113.488;2022-10-16T12:47:49;1.58;44.77
60242;SHT30;46103;52.076;113.488;2022-10-16T12:50:53;1.48;45.03
60242;SHT30;46103;52.076;113.488;2022-10-16T12:54:12;1.44;45.25
60242;SHT30;46103;52.076;113.488;2022-10-16T12:57:39;1.36;45.33
60242;SHT30;46103;52.076;113.488;2022-10-16T13:28:37;0.82;46.63
60242;SHT30;46103;52.076;113.488;2022-10-16T13:31:43;0.81;46.70
60242;SHT30;46103;52.076;113.488;2022-10-16T13:34:49;0.78;46.72
60242;SHT30;46103;52.076;113.488;2022-10-16T13:41:17;0.69;47.02
60242;SHT30;46103;52.076;113.488;2022-10-16T13:44:22;0.65;47.17
60242;SHT30;46103;52.076;113.488;2022-10-16T13:47:29;0.61;47.31
60242;SHT30;46103;52.076;113.488;2022-10-16T13:50:34;0.60;47.41
60242;SHT30;46103;52.076;113.488;2022-10-16T13:53:38;0.55;47.40
60242;SHT30;46103;52.076;113.488;2022-10-16T13:56:41;0.54;47.60
60242;SHT30;46103;52.076;113.488;2022-10-16T13:59:46;0.48;47.76
60242;SHT30;46103;52.076;113.488;2022-10-16T14:03:12;0.44;47.97
60242;SHT30;46103;52.076;113.488;2022-10-16T14:06:20;0.38;48.02
60242;SHT30;46103;52.076;113.488;2022-10-16T14:09:30;0.37;48.08
60242;SHT30;46103;52.076;113.488;2022-10-16T14:12:35;0.36;48.18
60242;SHT30;46103;52.076;113.488;2022-10-16T14:15:38;0.33;48.34
60242;SHT30;46103;52.076;113.488;2022-10-16T14:19:00;0.23;48.62
60242;SHT30;46103;52.076;113.488;2022-10-16T14:22:23;0.19;48.67
60242;SHT30;46103;52.076;113.488;2022-10-16T14:25:43;0.14;48.93
60242;SHT30;46103;52.076;113.488;2022-10-16T14:28:48;0.14;48.99
60242;SHT30;46103;52.076;113.488;2022-10-16T14:35:00;0.03;49.34
60242;SHT30;46103;52.076;113.488;2022-10-16T14:38:05;0.03;49.45
60242;SHT30;46103;52.076;113.488;2022-10-16T14:41:10;0.02;49.58
60242;SHT30;46103;52.076;113.488;2022-10-16T14:44:14;-0.08;49.78
60242;SHT30;46103;52.076;113.488;2022-10-16T14:47:21;-0.07;49.89
60242;SHT30;46103;52.076;113.488;2022-10-16T14:50:31;-0.07;49.83
60242;SHT30;46103;52.076;113.488;2022-10-16T14:53:35;-0.11;50.08
60242;SHT30;46103;52.076;113.488;2022-10-16T14:56:51;-0.10;50.31
60242;SHT30;46103;52.076;113.488;2022-10-16T14:59:55;-0.14;50.18
60242;SHT30;46103;52.076;113.488;2022-10-16T15:02:58;-0.11;50.45
60242;SHT30;46103;52.076;113.488;2022-10-16T15:06:02;-0.11;50.27
60242;SHT30;46103;52.076;113.488;2022-10-16T15:09:06;-0.11;50.30
60242;SHT30;46103;52.076;113.488;2022-10-16T15:12:10;-0.07;50.31
60242;SHT30;46103;52.076;113.488;2022-10-16T15:15:30;-0.10;50.46
60242;SHT30;46103;52.076;113.488;2022-10-16T15:18:35;-0.10;50.25
60242;SHT30;46103;52.076;113.488;2022-10-16T15:21:38;-0.05;50.21
60242;SHT30;46103;52.076;113.488;2022-10-16T15:24:42;-0.08;50.37
60242;SHT30;46103;52.076;113.488;2022-10-16T15:27:55;-0.07;50.41
60242;SHT30;46103;52.076;113.488;2022-10-16T15:30:59;-0.08;50.40
60242;SHT30;46103;52.076;113.488;2022-10-16T15:34:02;-0.04;50.55
60242;SHT30;46103;52.076;113.488;2022-10-16T15:37:08;-0.07;50.59
60242;SHT30;46103;52.076;113.488;2022-10-16T15:40:12;-0.10;50.60
60242;SHT30;46103;52.076;113.488;2022-10-16T15:43:15;-0.07;50.63
60242;SHT30;46103;52.076;113.488;2022-10-16T15:46:21;-0.05;50.63
60242;SHT30;46103;52.076;113.488;2022-10-16T15:49:24;-0.10;50.62
60242;SHT30;46103;52.076;113.488;2022-10-16T15:52:28;-0.15;50.89
60242;SHT30;46103;52.076;113.488;2022-10-16T15:55:33;-0.11;50.85
60242;SHT30;46103;52.076;113.488;2022-10-16T15:58:39;-0.15;50.98
60242;SHT30;46103;52.076;113.488;2022-10-16T16:01:43;-0.17;50.86
60242;SHT30;46103;52.076;113.488;2022-10-16T16:04:46;-0.17;51.39
60242;SHT30;46103;52.076;113.488;2022-10-16T16:07:50;-0.18;51.37
60242;SHT30;46103;52.076;113.488;2022-10-16T16:11:06;-0.18;51.29
60242;SHT30;46103;52.076;113.488;2022-10-16T16:14:12;-0.21;51.38
60242;SHT30;46103;52.076;113.488;2022-10-16T16:17:36;-0.23;51.61
60242;SHT30;46103;52.076;113.488;2022-10-16T16:20:56;-0.26;51.66
60242;SHT30;46103;52.076;113.488;2022-10-16T16:24:06;-0.26;51.64
60242;SHT30;46103;52.076;113.488;2022-10-16T16:27:16;-0.29;51.77
60242;SHT30;46103;52.076;113.488;2022-10-16T16:30:26;-0.30;51.91
60242;SHT30;46103;52.076;113.488;2022-10-16T16:33:35;-0.30;52.02
60242;SHT30;46103;52.076;113.488;2022-10-16T16:36:44;-0.35;51.99
60242;SHT30;46103;52.076;113.488;2022-10-16T16:39:53;-0.33;52.51
60242;SHT30;46103;52.076;113.488;2022-10-16T16:43:05;-0.33;52.10
60242;SHT30;46103;52.076;113.488;2022-10-16T16:46:13;-0.33;52.01
60242;SHT30;46103;52.076;113.488;2022-10-16T16:49:21;-0.35;51.89
60242;SHT30;46103;52.076;113.488;2022-10-16T16:52:30;-0.35;51.90
60242;SHT30;46103;52.076;113.488;2022-10-16T16:55:39;-0.33;51.92
60242;SHT30;46103;52.076;113.488;2022-10-16T16:58:49;-0.40;51.99
60242;SHT30;46103;52.076;113.488;2022-10-16T17:01:58;-0.43;52.15
60242;SHT30;46103;52.076;113.488;2022-10-16T17:05:07;-0.48;52.12
60242;SHT30;46103;52.076;113.488;2022-10-16T17:08:15;-0.49;52.25
60242;SHT30;46103;52.076;113.488;2022-10-16T17:11:25;-0.48;52.56
60242;SHT30;46103;52.076;113.488;2022-10-16T17:14:33;-0.52;52.32
60242;SHT30;46103;52.076;113.488;2022-10-16T17:17:42;-0.53;52.76
60242;SHT30;46103;52.076;113.488;2022-10-16T17:20:49;-0.56;52.90
60242;SHT30;46103;52.076;113.488;2022-10-16T17:23:58;-0.57;52.76
60242;SHT30;46103;52.076;113.488;2022-10-16T17:27:06;-0.65;52.67
60242;SHT30;46103;52.076;113.488;2022-10-16T17:30:15;-0.69;52.81
60242;SHT30;46103;52.076;113.488;2022-10-16T17:33:24;-0.73;52.77
60242;SHT30;46103;52.076;113.488;2022-10-16T17:36:34;-0.79;52.85
60242;SHT30;46103;52.076;113.488;2022-10-16T17:39:43;-0.83;53.07
60242;SHT30;46103;52.076;113.488;2022-10-16T17:42:52;-0.93;53.34
60242;SHT30;46103;52.076;113.488;2022-10-16T17:46:05;-1.00;53.50
60242;SHT30;46103;52.076;113.488;2022-10-16T17:49:13;-1.08;53.72
60242;SHT30;46103;52.076;113.488;2022-10-16T17:52:21;-1.15;53.96
60242;SHT30;46103;52.076;113.488;2022-10-16T17:55:30;-1.15;54.04
60242;SHT30;46103;52.076;113.488;2022-10-16T17:58:39;-1.22;54.25
60242;SHT30;46103;52.076;113.488;2022-10-16T18:01:54;-1.18;54.16
60242;SHT30;46103;52.076;113.488;2022-10-16T18:05:04;-1.21;54.21
60242;SHT30;46103;52.076;113.488;2022-10-16T18:08:12;-1.21;54.47
60242;SHT30;46103;52.076;113.488;2022-10-16T18:11:21;-1.30;54.59
60242;SHT30;46103;52.076;113.488;2022-10-16T18:14:30;-1.34;54.90
60242;SHT30;46103;52.076;113.488;2022-10-16T18:17:40;-1.38;55.08
60242;SHT30;46103;52.076;113.488;2022-10-16T18:20:59;-1.42;55.26
60242;SHT30;46103;52.076;113.488;2022-10-16T18:24:08;-1.45;55.72
60242;SHT30;46103;52.076;113.488;2022-10-16T18:27:16;-1.51;55.92
60242;SHT30;46103;52.076;113.488;2022-10-16T18:30:24;-1.53;56.31
60242;SHT30;46103;52.076;113.488;2022-10-16T18:33:32;-1.52;56.31
60242;SHT30;46103;52.076;113.488;2022-10-16T18:36:41;-1.49;56.07
60242;SHT30;46103;52.076;113.488;2022-10-16T18:39:51;-1.48;56.17
60242;SHT30;46103;52.076;113.488;2022-10-16T18:43:01;-1.45;55.98
60242;SHT30;46103;52.076;113.488;2022-10-16T18:46:15;-1.42;55.86
60242;SHT30;46103;52.076;113.488;2022-10-16T18:49:25;-1.41;55.79
60242;SHT30;46103;52.076;113.488;2022-10-16T18:52:34;-1.38;55.71
60242;SHT30;46103;52.076;113.488;2022-10-16T18:55:51;-1.35;55.51
60242;SHT30;46103;52.076;113.488;2022-10-16T18:59:00;-1.36;55.64
60242;SHT30;46103;52.076;113.488;2022-10-16T19:02:11;-1.35;55.72
60242;SHT30;46103;52.076;113.488;2022-10-16T19:05:19;-1.35;55.63
60242;SHT30;46103;52.076;113.488;2022-10-16T19:08:29;-1.36;55.71
60242;SHT30;46103;52.076;113.488;2022-10-16T19:11:39;-1.41;55.75
60242;SHT30;46103;52.076;113.488;2022-10-16T19:14:48;-1.42;55.69
60242;SHT30;46103;52.076;113.488;2022-10-16T19:17:56;-1.43;56.00
60242;SHT30;46103;52.076;113.488;2022-10-16T19:21:08;-1.46;55.81
60242;SHT30;46103;52.076;113.488;2022-10-16T19:24:18;-1.53;56.04
60242;SHT30;46103;52.076;113.488;2022-10-16T19:27:28;-1.52;56.12
60242;SHT30;46103;52.076;113.488;2022-10-16T19:30:40;-1.56;56.07
60242;SHT30;46103;52.076;113.488;2022-10-16T19:33:56;-1.59;56.25
60242;SHT30;46103;52.076;113.488;2022-10-16T19:37:04;-1.64;56.36
60242;SHT30;46103;52.076;113.488;2022-10-16T19:40:11;-1.74;56.46
60242;SHT30;46103;52.076;113.488;2022-10-16T19:43:19;-1.89;56.99
60242;SHT30;46103;52.076;113.488;2022-10-16T19:46:28;-1.97;56.96
60242;SHT30;46103;52.076;113.488;2022-10-16T19:49:38;-2.14;57.43
60242;SHT30;46103;52.076;113.488;2022-10-16T19:52:47;-2.29;58.25
60242;SHT30;46103;52.076;113.488;2022-10-16T19:55:59;-2.28;58.13
60242;SHT30;46103;52.076;113.488;2022-10-16T19:59:09;-2.27;58.08
60242;SHT30;46103;52.076;113.488;2022-10-16T20:02:20;-2.18;57.97
60242;SHT30;46103;52.076;113.488;2022-10-16T20:05:29;-2.19;58.06
60242;SHT30;46103;52.076;113.488;2022-10-16T20:08:40;-2.15;58.08
60242;SHT30;46103;52.076;113.488;2022-10-16T20:11:49;-2.17;58.17
60242;SHT30;46103;52.076;113.488;2022-10-16T20:14:59;-2.12;57.96
60242;SHT30;46103;52.076;113.488;2022-10-16T20:18:10;-2.08;57.88
60242;SHT30;46103;52.076;113.488;2022-10-16T20:21:21;-2.02;57.67
60242;SHT30;46103;52.076;113.488;2022-10-16T20:24:30;-2.02;57.58
60242;SHT30;46103;52.076;113.488;2022-10-16T20:27:41;-2.01;57.41
60242;SHT30;46103;52.076;113.488;2022-10-16T20:30:54;-1.98;57.36
60242;SHT30;46103;52.076;113.488;2022-10-16T20:34:07;-1.97;57.38
60242;SHT30;46103;52.076;113.488;2022-10-16T20:37:22;-1.94;57.30
60242;SHT30;46103;52.076;113.488;2022-10-16T20:40:37;-1.97;57.19
60242;SHT30;46103;52.076;113.488;2022-10-16T20:43:49;-2.02;58.02
60242;SHT30;46103;52.076;113.488;2022-10-16T20:46:59;-2.11;58.21
60242;SHT30;46103;52.076;113.488;2022-10-16T20:50:08;-2.19;58.34
60242;SHT30;46103;52.076;113.488;2022-10-16T20:53:18;-2.24;58.65
60242;SHT30;46103;52.076;113.488;2022-10-16T20:56:29;-2.28;58.56
60242;SHT30;46103;52.076;113.488;2022-10-16T20:59:38;-2.27;58.45
60242;SHT30;46103;52.076;113.488;2022-10-16T21:02:51;-2.22;58.45
60242;SHT30;46103;52.076;113.488;2022-10-16T21:06:03;-2.28;58.68
60242;SHT30;46103;52.076;113.488;2022-10-16T21:09:12;-2.25;58.92